sensor_id;sensor_type;location;lat;lon;timestamp;temperature;humidity
20171;DHT22;10245;51.344;6.620;2023-04-07T00:01:50;7.80;95.40
20171;DHT22;10245;51.344;6.620;2023-04-07T00:04:14;7.80;95.40
20171;DHT22;10245;51.344;6.620;2023-04-07T00:06:39;7.80;95.40
20171;DHT22;10245;51.344;6.620;2023-04-07T00:09:04;7.80;95.50
20171;DHT22;10245;51.344;6.620;2023-04-07T00:11:27;7.90;95.50
20171;DHT22;10245;51.344;6.620;2023-04-07T00:13:51;7.90;95.40
20171;DHT22;10245;51.344;6.620;2023-04-07T00:16:14;7.90;95.40
20171;DHT22;10245;51.344;6.620;2023-04-07T00:18:38;7.90;95.50
20171;DHT22;10245;51.344;6.620;2023-04-07T00:21:01;7.90;95.50
20171;DHT22;10245;51.344;6.620;2023-04-07T00:23:26;7.90;95.50
20171;DHT22;10245;51.344;6.620;2023-04-07T00:25:50;7.90;95.40
20171;DHT22;10245;51.344;6.620;2023-04-07T00:28:13;8.00;95.40
20171;DHT22;10245;51.344;6.620;2023-04-07T00:30:37;8.00;95.40
20171;DHT22;10245;51.344;6.620;2023-04-07T00:33:00;8.00;95.40
20171;DHT22;10245;51.344;6.620;2023-04-07T00:35:23;8.00;95.50
20171;DHT22;10245;51.344;6.620;2023-04-07T00:37:47;8.00;95.40
20171;DHT22;10245;51.344;6.620;2023-04-07T00:40:11;8.00;95.50
20171;DHT22;10245;51.344;6.620;2023-04-07T00:42:35;8.00;95.50
20171;DHT22;10245;51.344;6.620;2023-04-07T00:44:58;8.00;95.50
20171;DHT22;10245;51.344;6.620;2023-04-07T00:47:21;8.10;95.50
20171;DHT22;10245;51.344;6.620;2023-04-07T00:49:45;8.10;95.60
20171;DHT22;10245;51.344;6.620;2023-04-07T00:52:09;8.00;95.60
20171;DHT22;10245;51.344;6.620;2023-04-07T00:54:34;8.10;95.60
20171;DHT22;10245;51.344;6.620;2023-04-07T00:56:58;8.20;95.60
20171;DHT22;10245;51.344;6.620;2023-04-07T00:59:22;8.30;95.60
20171;DHT22;10245;51.344;6.620;2023-04-07T01:01:50;8.40;95.70
20171;DHT22;10245;51.344;6.620;2023-04-07T01:04:24;8.40;95.70
20171;DHT22;10245;51.344;6.620;2023-04-07T01:06:55;8.50;95.80
20171;DHT22;10245;51.344;6.620;2023-04-07T01:09:36;8.40;95.80
20171;DHT22;10245;51.344;6.620;2023-04-07T01:12:07;8.50;95.80
20171;DHT22;10245;51.344;6.620;2023-04-07T01:14:40;8.50;95.80
20171;DHT22;10245;51.344;6.620;2023-04-07T01:17:27;8.50;95.80
20171;DHT22;10245;51.344;6.620;2023-04-07T01:19:56;8.50;95.80
20171;DHT22;10245;51.344;6.620;2023-04-07T01:22:26;8.50;95.80
20171;DHT22;10245;51.344;6.620;2023-04-07T01:25:14;8.60;95.80
20171;DHT22;10245;51.344;6.620;2023-04-07T01:27:55;8.60;95.80
20171;DHT22;10245;51.344;6.620;2023-04-07T01:30:27;8.60;95.80
20171;DHT22;10245;51.344;6.620;2023-04-07T01:32:52;8.60;95.80
20171;DHT22;10245;51.344;6.620;2023-04-07T01:35:17;8.60;95.80
20171;DHT22;10245;51.344;6.620;2023-04-07T01:37:42;8.60;95.80
20171;DHT22;10245;51.344;6.620;2023-04-07T01:40:08;8.70;95.80
20171;DHT22;10245;51.344;6.620;2023-04-07T01:42:32;8.70;95.80
20171;DHT22;10245;51.344;6.620;2023-04-07T01:44:57;8.60;95.70
20171;DHT22;10245;51.344;6.620;2023-04-07T01:47:22;8.60;95.70
20171;DHT22;10245;51.344;6.620;2023-04-07T01:49:49;8.70;95.70
20171;DHT22;10245;51.344;6.620;2023-04-07T01:52:13;8.70;95.70
20171;DHT22;10245;51.344;6.620;2023-04-07T01:54:37;8.70;95.70
20171;DHT22;10245;51.344;6.620;2023-04-07T01:57:02;8.60;95.70
20171;DHT22;10245;51.344;6.620;2023-04-07T01:59:25;8.60;95.60
20171;DHT22;10245;51.344;6.620;2023-04-07T02:01:50;8.60;95.60
20171;DHT22;10245;51.344;6.620;2023-04-07T02:04:21;8.60;95.50
20171;DHT22;10245;51.344;6.620;2023-04-07T02:06:52;8.60;95.60
20171;DHT22;10245;51.344;6.620;2023-04-07T02:09:29;8.60;95.50
20171;DHT22;10245;51.344;6.620;2023-04-07T02:11:54;8.70;95.50
20171;DHT22;10245;51.344;6.620;2023-04-07T02:14:20;8.60;95.50
20171;DHT22;10245;51.344;6.620;2023-04-07T02:16:54;8.60;95.40
20171;DHT22;10245;51.344;6.620;2023-04-07T02:19:19;8.60;95.40
20171;DHT22;10245;51.344;6.620;2023-04-07T02:21:43;8.60;95.30
20171;DHT22;10245;51.344;6.620;2023-04-07T02:24:10;8.60;95.30
20171;DHT22;10245;51.344;6.620;2023-04-07T02:26:34;8.60;95.30
20171;DHT22;10245;51.344;6.620;2023-04-07T02:28:58;8.60;95.30
20171;DHT22;10245;51.344;6.620;2023-04-07T02:31:21;8.50;95.20
20171;DHT22;10245;51.344;6.620;2023-04-07T02:33:44;8.50;95.20
20171;DHT22;10245;51.344;6.620;2023-04-07T02:36:09;8.50;95.20
20171;DHT22;10245;51.344;6.620;2023-04-07T02:38:32;8.50;95.20
20171;DHT22;10245;51.344;6.620;2023-04-07T02:40:58;8.50;95.20
20171;DHT22;10245;51.344;6.620;2023-04-07T02:43:23;8.50;95.30
20171;DHT22;10245;51.344;6.620;2023-04-07T02:45:47;8.50;95.30
20171;DHT22;10245;51.344;6.620;2023-04-07T02:48:10;8.50;95.30
20171;DHT22;10245;51.344;6.620;2023-04-07T02:50:33;8.50;95.30
20171;DHT22;10245;51.344;6.620;2023-04-07T02:52:58;8.50;95.30
20171;DHT22;10245;51.344;6.620;2023-04-07T02:55:22;8.50;95.20
20171;DHT22;10245;51.344;6.620;2023-04-07T02:57:45;8.50;95.10
20171;DHT22;10245;51.344;6.620;2023-04-07T03:00:25;8.50;95.10
20171;DHT22;10245;51.344;6.620;2023-04-07T03:03:00;8.50;95.10
20171;DHT22;10245;51.344;6.620;2023-04-07T03:05:27;8.50;95.10
20171;DHT22;10245;51.344;6.620;2023-04-07T03:07:50;8.50;95.10
20171;DHT22;10245;51.344;6.620;2023-04-07T03:10:15;8.50;95.00
20171;DHT22;10245;51.344;6.620;2023-04-07T03:12:39;8.50;95.00
20171;DHT22;10245;51.344;6.620;2023-04-07T03:15:03;8.40;94.90
20171;DHT22;10245;51.344;6.620;2023-04-07T03:17:27;8.40;95.00
20171;DHT22;10245;51.344;6.620;2023-04-07T03:19:50;8.40;95.00
20171;DHT22;10245;51.344;6.620;2023-04-07T03:22:14;8.40;95.00
20171;DHT22;10245;51.344;6.620;2023-04-07T03:24:42;8.40;95.00
20171;DHT22;10245;51.344;6.620;2023-04-07T03:27:08;8.50;95.00
20171;DHT22;10245;51.344;6.620;2023-04-07T03:29:36;8.50;95.00
20171;DHT22;10245;51.344;6.620;2023-04-07T03:32:02;8.40;95.00
20171;DHT22;10245;51.344;6.620;2023-04-07T03:34:26;8.40;95.00
20171;DHT22;10245;51.344;6.620;2023-04-07T03:36:50;8.50;95.00
20171;DHT22;10245;51.344;6.620;2023-04-07T03:39:13;8.50;95.00
20171;DHT22;10245;51.344;6.620;2023-04-07T03:41:38;8.50;95.00
20171;DHT22;10245;51.344;6.620;2023-04-07T03:44:03;8.40;94.90
20171;DHT22;10245;51.344;6.620;2023-04-07T03:46:30;8.40;94.90
20171;DHT22;10245;51.344;6.620;2023-04-07T03:48:53;8.40;94.80
20171;DHT22;10245;51.344;6.620;2023-04-07T03:51:17;8.30;94.80
20171;DHT22;10245;51.344;6.620;2023-04-07T03:53:43;8.30;94.80
20171;DHT22;10245;51.344;6.620;2023-04-07T03:56:23;8.30;94.60
20171;DHT22;10245;51.344;6.620;2023-04-07T03:58:49;8.30;94.60
20171;DHT22;10245;51.344;6.620;2023-04-07T04:01:22;8.30;94.60
20171;DHT22;10245;51.344;6.620;2023-04-07T04:03:48;8.30;94.60
20171;DHT22;10245;51.344;6.620;2023-04-07T04:06:17;8.30;94.70
20171;DHT22;10245;51.344;6.620;2023-04-07T04:08:41;8.30;94.60
20171;DHT22;10245;51.344;6.620;2023-04-07T04:11:04;8.20;94.60
20171;DHT22;10245;51.344;6.620;2023-04-07T04:13:35;8.20;94.60
20171;DHT22;10245;51.344;6.620;2023-04-07T04:15:59;8.20;94.70
20171;DHT22;10245;51.344;6.620;2023-04-07T04:18:24;8.20;94.70
20171;DHT22;10245;51.344;6.620;2023-04-07T04:20:48;8.10;94.70
20171;DHT22;10245;51.344;6.620;2023-04-07T04:23:13;8.20;94.70
20171;DHT22;10245;51.344;6.620;2023-04-07T04:25:37;8.10;94.70
20171;DHT22;10245;51.344;6.620;2023-04-07T04:28:04;8.10;94.70
20171;DHT22;10245;51.344;6.620;2023-04-07T04:30:29;8.20;94.70
20171;DHT22;10245;51.344;6.620;2023-04-07T04:32:56;8.20;94.70
20171;DHT22;10245;51.344;6.620;2023-04-07T04:35:36;8.10;94.60
20171;DHT22;10245;51.344;6.620;2023-04-07T04:38:03;8.10;94.80
20171;DHT22;10245;51.344;6.620;2023-04-07T04:40:27;8.10;94.70
20171;DHT22;10245;51.344;6.620;2023-04-07T04:42:51;8.00;94.70
20171;DHT22;10245;51.344;6.620;2023-04-07T04:45:16;8.10;94.70
20171;DHT22;10245;51.344;6.620;2023-04-07T04:47:42;8.00;94.70
20171;DHT22;10245;51.344;6.620;2023-04-07T04:50:06;8.00;94.70
20171;DHT22;10245;51.344;6.620;2023-04-07T04:52:35;8.00;94.70
20171;DHT22;10245;51.344;6.620;2023-04-07T04:54:59;8.00;94.70
20171;DHT22;10245;51.344;6.620;2023-04-07T04:57:23;8.00;94.80
20171;DHT22;10245;51.344;6.620;2023-04-07T04:59:47;8.00;94.70
20171;DHT22;10245;51.344;6.620;2023-04-07T05:02:10;8.00;94.70
20171;DHT22;10245;51.344;6.620;2023-04-07T05:04:34;8.00;94.50
20171;DHT22;10245;51.344;6.620;2023-04-07T05:07:13;8.00;94.60
20171;DHT22;10245;51.344;6.620;2023-04-07T05:09:50;8.00;94.60
20171;DHT22;10245;51.344;6.620;2023-04-07T05:12:15;8.00;94.60
20171;DHT22;10245;51.344;6.620;2023-04-07T05:14:43;8.00;94.60
20171;DHT22;10245;51.344;6.620;2023-04-07T05:17:07;8.00;94.60
20171;DHT22;10245;51.344;6.620;2023-04-07T05:19:31;8.00;94.60
20171;DHT22;10245;51.344;6.620;2023-04-07T05:22:01;8.00;94.60
20171;DHT22;10245;51.344;6.620;2023-04-07T05:24:31;8.00;94.70
20171;DHT22;10245;51.344;6.620;2023-04-07T05:26:56;8.00;94.70
20171;DHT22;10245;51.344;6.620;2023-04-07T05:29:20;8.00;94.60
20171;DHT22;10245;51.344;6.620;2023-04-07T05:31:45;7.90;94.70
20171;DHT22;10245;51.344;6.620;2023-04-07T05:34:10;8.00;94.70
20171;DHT22;10245;51.344;6.620;2023-04-07T05:36:39;7.90;94.80
20171;DHT22;10245;51.344;6.620;2023-04-07T05:39:03;7.90;94.80
20171;DHT22;10245;51.344;6.620;2023-04-07T05:41:27;7.90;94.80
20171;DHT22;10245;51.344;6.620;2023-04-07T05:43:52;8.00;94.70
20171;DHT22;10245;51.344;6.620;2023-04-07T05:46:16;7.90;94.60
20171;DHT22;10245;51.344;6.620;2023-04-07T05:48:47;8.00;94.60
20171;DHT22;10245;51.344;6.620;2023-04-07T05:51:10;7.90;94.60
20171;DHT22;10245;51.344;6.620;2023-04-07T05:53:34;8.00;94.60
20171;DHT22;10245;51.344;6.620;2023-04-07T05:55:57;7.90;94.60
20171;DHT22;10245;51.344;6.620;2023-04-07T05:58:37;7.90;94.70
20171;DHT22;10245;51.344;6.620;2023-04-07T06:01:03;7.90;94.60
20171;DHT22;10245;51.344;6.620;2023-04-07T06:03:27;7.90;94.60
20171;DHT22;10245;51.344;6.620;2023-04-07T06:06:14;8.00;94.60
20171;DHT22;10245;51.344;6.620;2023-04-07T06:08:39;8.00;94.70
20171;DHT22;10245;51.344;6.620;2023-04-07T06:11:02;8.00;94.50
20171;DHT22;10245;51.344;6.620;2023-04-07T06:13:27;7.90;94.50
20171;DHT22;10245;51.344;6.620;2023-04-07T06:15:51;7.90;94.60
20171;DHT22;10245;51.344;6.620;2023-04-07T06:18:18;7.90;94.70
20171;DHT22;10245;51.344;6.620;2023-04-07T06:20:41;7.90;94.70
20171;DHT22;10245;51.344;6.620;2023-04-07T06:23:05;8.00;94.70
20171;DHT22;10245;51.344;6.620;2023-04-07T06:25:28;7.90;94.60
20171;DHT22;10245;51.344;6.620;2023-04-07T06:27:52;8.00;94.70
20171;DHT22;10245;51.344;6.620;2023-04-07T06:30:17;8.00;94.60
20171;DHT22;10245;51.344;6.620;2023-04-07T06:32:41;8.00;94.70
20171;DHT22;10245;51.344;6.620;2023-04-07T06:35:07;8.00;94.70
20171;DHT22;10245;51.344;6.620;2023-04-07T06:37:30;8.00;94.60
20171;DHT22;10245;51.344;6.620;2023-04-07T06:39:54;8.00;94.60
20171;DHT22;10245;51.344;6.620;2023-04-07T06:42:17;8.00;94.80
20171;DHT22;10245;51.344;6.620;2023-04-07T06:44:52;8.00;94.70
20171;DHT22;10245;51.344;6.620;2023-04-07T06:47:16;8.00;94.70
20171;DHT22;10245;51.344;6.620;2023-04-07T06:49:39;8.00;94.60
20171;DHT22;10245;51.344;6.620;2023-04-07T06:52:04;8.10;94.70
20171;DHT22;10245;51.344;6.620;2023-04-07T06:54:27;8.00;94.70
20171;DHT22;10245;51.344;6.620;2023-04-07T06:56:51;8.10;94.70
20171;DHT22;10245;51.344;6.620;2023-04-07T06:59:15;8.10;94.70
20171;DHT22;10245;51.344;6.620;2023-04-07T07:01:39;8.10;94.70
20171;DHT22;10245;51.344;6.620;2023-04-07T07:04:03;8.10;94.70
20171;DHT22;10245;51.344;6.620;2023-04-07T07:06:27;8.10;94.50
20171;DHT22;10245;51.344;6.620;2023-04-07T07:08:54;8.10;94.50
20171;DHT22;10245;51.344;6.620;2023-04-07T07:11:17;8.10;94.60
20171;DHT22;10245;51.344;6.620;2023-04-07T07:13:40;8.20;94.60
20171;DHT22;10245;51.344;6.620;2023-04-07T07:16:04;8.20;94.60
20171;DHT22;10245;51.344;6.620;2023-04-07T07:18:28;8.20;94.50
20171;DHT22;10245;51.344;6.620;2023-04-07T07:20:52;8.20;94.60
20171;DHT22;10245;51.344;6.620;2023-04-07T07:23:16;8.30;94.60
20171;DHT22;10245;51.344;6.620;2023-04-07T07:25:40;8.40;94.60
20171;DHT22;10245;51.344;6.620;2023-04-07T07:28:03;8.20;94.50
20171;DHT22;10245;51.344;6.620;2023-04-07T07:30:27;8.30;94.70
20171;DHT22;10245;51.344;6.620;2023-04-07T07:32:51;8.30;94.50
20171;DHT22;10245;51.344;6.620;2023-04-07T07:35:15;8.30;94.50
20171;DHT22;10245;51.344;6.620;2023-04-07T07:37:38;8.30;94.40
20171;DHT22;10245;51.344;6.620;2023-04-07T07:40:02;8.40;94.40
20171;DHT22;10245;51.344;6.620;2023-04-07T07:42:27;8.50;94.50
20171;DHT22;10245;51.344;6.620;2023-04-07T07:44:51;8.50;94.40
20171;DHT22;10245;51.344;6.620;2023-04-07T07:47:14;8.50;94.30
20171;DHT22;10245;51.344;6.620;2023-04-07T07:49:38;8.50;94.20
20171;DHT22;10245;51.344;6.620;2023-04-07T07:52:02;8.50;94.00
20171;DHT22;10245;51.344;6.620;2023-04-07T07:54:26;8.50;93.70
20171;DHT22;10245;51.344;6.620;2023-04-07T07:56:49;8.50;93.70
20171;DHT22;10245;51.344;6.620;2023-04-07T07:59:14;8.60;93.80
20171;DHT22;10245;51.344;6.620;2023-04-07T08:01:38;8.60;93.60
20171;DHT22;10245;51.344;6.620;2023-04-07T08:04:02;8.60;93.40
20171;DHT22;10245;51.344;6.620;2023-04-07T08:06:25;8.80;93.40
20171;DHT22;10245;51.344;6.620;2023-04-07T08:08:50;8.80;93.30
20171;DHT22;10245;51.344;6.620;2023-04-07T08:11:13;8.80;93.30
20171;DHT22;10245;51.344;6.620;2023-04-07T08:13:36;8.90;93.30
20171;DHT22;10245;51.344;6.620;2023-04-07T08:16:01;8.80;93.00
20171;DHT22;10245;51.344;6.620;2023-04-07T08:18:24;8.80;93.40
20171;DHT22;10245;51.344;6.620;2023-04-07T08:20:48;8.80;93.40
20171;DHT22;10245;51.344;6.620;2023-04-07T08:23:12;8.70;93.20
20171;DHT22;10245;51.344;6.620;2023-04-07T08:25:36;8.70;93.10
20171;DHT22;10245;51.344;6.620;2023-04-07T08:28:00;8.80;93.40
20171;DHT22;10245;51.344;6.620;2023-04-07T08:30:24;8.90;93.20
20171;DHT22;10245;51.344;6.620;2023-04-07T08:32:49;8.80;92.80
20171;DHT22;10245;51.344;6.620;2023-04-07T08:35:12;8.80;93.00
20171;DHT22;10245;51.344;6.620;2023-04-07T08:37:37;8.80;92.90
20171;DHT22;10245;51.344;6.620;2023-04-07T08:40:02;8.80;92.90
20171;DHT22;10245;51.344;6.620;2023-04-07T08:42:27;8.70;92.90
20171;DHT22;10245;51.344;6.620;2023-04-07T08:44:53;8.80;92.80
20171;DHT22;10245;51.344;6.620;2023-04-07T08:47:19;8.90;92.90
20171;DHT22;10245;51.344;6.620;2023-04-07T08:49:46;8.90;92.90
20171;DHT22;10245;51.344;6.620;2023-04-07T08:52:12;9.00;92.90
20171;DHT22;10245;51.344;6.620;2023-04-07T08:54:37;8.90;92.30
20171;DHT22;10245;51.344;6.620;2023-04-07T08:57:02;8.80;92.40
20171;DHT22;10245;51.344;6.620;2023-04-07T08:59:26;8.80;92.30
20171;DHT22;10245;51.344;6.620;2023-04-07T09:01:51;8.90;92.10
20171;DHT22;10245;51.344;6.620;2023-04-07T09:04:14;8.90;92.10
20171;DHT22;10245;51.344;6.620;2023-04-07T09:06:40;8.90;91.70
20171;DHT22;10245;51.344;6.620;2023-04-07T09:09:03;9.00;92.10
20171;DHT22;10245;51.344;6.620;2023-04-07T09:11:28;9.00;91.60
20171;DHT22;10245;51.344;6.620;2023-04-07T09:13:52;9.10;91.60
20171;DHT22;10245;51.344;6.620;2023-04-07T09:16:15;9.20;91.30
20171;DHT22;10245;51.344;6.620;2023-04-07T09:18:39;9.00;91.30
20171;DHT22;10245;51.344;6.620;2023-04-07T09:21:04;8.90;91.00
20171;DHT22;10245;51.344;6.620;2023-04-07T09:23:31;9.00;91.60
20171;DHT22;10245;51.344;6.620;2023-04-07T09:25:56;9.10;91.60
20171;DHT22;10245;51.344;6.620;2023-04-07T09:28:22;9.10;91.50
20171;DHT22;10245;51.344;6.620;2023-04-07T09:30:52;9.10;90.60
20171;DHT22;10245;51.344;6.620;2023-04-07T09:33:15;9.10;90.80
20171;DHT22;10245;51.344;6.620;2023-04-07T09:35:50;9.30;90.90
20171;DHT22;10245;51.344;6.620;2023-04-07T09:38:15;9.30;90.60
20171;DHT22;10245;51.344;6.620;2023-04-07T09:40:39;9.30;90.10
20171;DHT22;10245;51.344;6.620;2023-04-07T09:43:04;9.20;90.50
20171;DHT22;10245;51.344;6.620;2023-04-07T09:45:29;9.10;90.10
20171;DHT22;10245;51.344;6.620;2023-04-07T09:47:57;9.20;89.90
20171;DHT22;10245;51.344;6.620;2023-04-07T09:50:30;9.30;90.30
20171;DHT22;10245;51.344;6.620;2023-04-07T09:52:56;9.30;90.10
20171;DHT22;10245;51.344;6.620;2023-04-07T09:55:20;9.30;89.20
20171;DHT22;10245;51.344;6.620;2023-04-07T09:57:46;9.30;89.40
20171;DHT22;10245;51.344;6.620;2023-04-07T10:00:11;9.50;89.60
20171;DHT22;10245;51.344;6.620;2023-04-07T10:02:37;9.60;89.30
20171;DHT22;10245;51.344;6.620;2023-04-07T10:05:01;9.50;88.80
20171;DHT22;10245;51.344;6.620;2023-04-07T10:07:25;9.50;89.40
20171;DHT22;10245;51.344;6.620;2023-04-07T10:09:48;9.50;89.70
20171;DHT22;10245;51.344;6.620;2023-04-07T10:12:12;9.20;89.60
20171;DHT22;10245;51.344;6.620;2023-04-07T10:14:37;9.10;90.10
20171;DHT22;10245;51.344;6.620;2023-04-07T10:17:02;9.00;90.60
20171;DHT22;10245;51.344;6.620;2023-04-07T10:19:29;9.10;90.90
20171;DHT22;10245;51.344;6.620;2023-04-07T10:21:54;9.20;90.60
20171;DHT22;10245;51.344;6.620;2023-04-07T10:27:11;9.40;90.70
20171;DHT22;10245;51.344;6.620;2023-04-07T10:29:41;9.30;90.30
20171;DHT22;10245;51.344;6.620;2023-04-07T10:32:05;9.40;90.80
20171;DHT22;10245;51.344;6.620;2023-04-07T10:34:57;9.50;90.40
20171;DHT22;10245;51.344;6.620;2023-04-07T10:37:23;9.40;90.40
20171;DHT22;10245;51.344;6.620;2023-04-07T10:39:47;9.30;90.00
20171;DHT22;10245;51.344;6.620;2023-04-07T10:42:44;9.40;90.30
20171;DHT22;10245;51.344;6.620;2023-04-07T10:45:09;9.50;90.10
20171;DHT22;10245;51.344;6.620;2023-04-07T10:47:33;9.50;90.10
20171;DHT22;10245;51.344;6.620;2023-04-07T10:50:16;9.50;89.50
20171;DHT22;10245;51.344;6.620;2023-04-07T10:52:40;9.40;89.20
20171;DHT22;10245;51.344;6.620;2023-04-07T10:55:30;9.50;89.20
20171;DHT22;10245;51.344;6.620;2023-04-07T10:58:15;9.40;89.50
20171;DHT22;10245;51.344;6.620;2023-04-07T11:00:42;9.30;89.80
20171;DHT22;10245;51.344;6.620;2023-04-07T11:03:40;9.30;89.60
20171;DHT22;10245;51.344;6.620;2023-04-07T11:06:06;9.20;89.40
20171;DHT22;10245;51.344;6.620;2023-04-07T11:08:33;9.20;90.20
20171;DHT22;10245;51.344;6.620;2023-04-07T11:10:56;9.20;89.70
20171;DHT22;10245;51.344;6.620;2023-04-07T11:13:20;9.10;89.60
20171;DHT22;10245;51.344;6.620;2023-04-07T11:15:49;9.10;90.50
20171;DHT22;10245;51.344;6.620;2023-04-07T11:18:17;9.10;89.50
20171;DHT22;10245;51.344;6.620;2023-04-07T11:20:47;9.20;89.20
20171;DHT22;10245;51.344;6.620;2023-04-07T11:23:13;9.30;89.50
20171;DHT22;10245;51.344;6.620;2023-04-07T11:25:37;9.30;89.70
20171;DHT22;10245;51.344;6.620;2023-04-07T11:28:02;9.30;89.50
20171;DHT22;10245;51.344;6.620;2023-04-07T11:30:25;9.40;89.70
20171;DHT22;10245;51.344;6.620;2023-04-07T11:32:50;9.50;89.50
20171;DHT22;10245;51.344;6.620;2023-04-07T11:35:13;9.40;89.10
20171;DHT22;10245;51.344;6.620;2023-04-07T11:37:37;9.50;88.50
20171;DHT22;10245;51.344;6.620;2023-04-07T11:40:00;9.50;88.20
20171;DHT22;10245;51.344;6.620;2023-04-07T11:42:31;9.50;88.40
20171;DHT22;10245;51.344;6.620;2023-04-07T11:44:55;9.60;88.60
20171;DHT22;10245;51.344;6.620;2023-04-07T11:47:18;9.80;88.40
20171;DHT22;10245;51.344;6.620;2023-04-07T11:49:45;9.80;88.70
20171;DHT22;10245;51.344;6.620;2023-04-07T11:52:08;9.70;88.60
20171;DHT22;10245;51.344;6.620;2023-04-07T11:54:39;9.60;88.30
20171;DHT22;10245;51.344;6.620;2023-04-07T11:57:03;9.80;88.10
20171;DHT22;10245;51.344;6.620;2023-04-07T11:59:27;9.80;87.60
20171;DHT22;10245;51.344;6.620;2023-04-07T12:01:51;9.80;87.40
20171;DHT22;10245;51.344;6.620;2023-04-07T12:04:18;9.80;87.70
20171;DHT22;10245;51.344;6.620;2023-04-07T12:06:44;9.70;87.70
20171;DHT22;10245;51.344;6.620;2023-04-07T12:09:23;9.70;87.60
20171;DHT22;10245;51.344;6.620;2023-04-07T12:11:48;9.60;87.50
20171;DHT22;10245;51.344;6.620;2023-04-07T12:14:12;9.70;87.60
20171;DHT22;10245;51.344;6.620;2023-04-07T12:16:37;9.70;87.10
20171;DHT22;10245;51.344;6.620;2023-04-07T12:19:00;9.60;87.60
20171;DHT22;10245;51.344;6.620;2023-04-07T12:21:23;9.80;87.70
20171;DHT22;10245;51.344;6.620;2023-04-07T12:23:48;9.70;87.80
20171;DHT22;10245;51.344;6.620;2023-04-07T12:26:12;9.80;88.00
20171;DHT22;10245;51.344;6.620;2023-04-07T12:28:36;9.90;87.60
20171;DHT22;10245;51.344;6.620;2023-04-07T12:30:59;10.00;87.50
20171;DHT22;10245;51.344;6.620;2023-04-07T12:33:24;9.90;87.10
20171;DHT22;10245;51.344;6.620;2023-04-07T12:35:47;10.00;87.10
20171;DHT22;10245;51.344;6.620;2023-04-07T12:38:11;9.90;87.30
20171;DHT22;10245;51.344;6.620;2023-04-07T12:40:36;9.90;86.70
20171;DHT22;10245;51.344;6.620;2023-04-07T12:42:59;9.90;86.50
20171;DHT22;10245;51.344;6.620;2023-04-07T12:45:23;10.00;86.80
20171;DHT22;10245;51.344;6.620;2023-04-07T12:47:46;9.90;86.80
20171;DHT22;10245;51.344;6.620;2023-04-07T12:50:10;9.90;86.30
20171;DHT22;10245;51.344;6.620;2023-04-07T12:52:33;9.90;86.90
20171;DHT22;10245;51.344;6.620;2023-04-07T12:54:57;9.80;86.70
20171;DHT22;10245;51.344;6.620;2023-04-07T12:57:21;9.80;86.50
20171;DHT22;10245;51.344;6.620;2023-04-07T12:59:45;10.00;86.10
20171;DHT22;10245;51.344;6.620;2023-04-07T13:02:09;10.00;86.60
20171;DHT22;10245;51.344;6.620;2023-04-07T13:04:34;9.90;86.90
20171;DHT22;10245;51.344;6.620;2023-04-07T13:07:01;10.00;86.80
20171;DHT22;10245;51.344;6.620;2023-04-07T13:09:24;10.10;86.70
20171;DHT22;10245;51.344;6.620;2023-04-07T13:11:48;10.00;85.60
20171;DHT22;10245;51.344;6.620;2023-04-07T13:14:12;10.10;86.30
20171;DHT22;10245;51.344;6.620;2023-04-07T13:16:36;10.20;86.20
20171;DHT22;10245;51.344;6.620;2023-04-07T13:18:59;10.10;86.20
20171;DHT22;10245;51.344;6.620;2023-04-07T13:21:23;9.90;85.60
20171;DHT22;10245;51.344;6.620;2023-04-07T13:23:49;9.80;86.00
20171;DHT22;10245;51.344;6.620;2023-04-07T13:26:13;9.90;86.00
20171;DHT22;10245;51.344;6.620;2023-04-07T13:28:37;9.90;86.10
20171;DHT22;10245;51.344;6.620;2023-04-07T13:31:02;9.90;86.20
20171;DHT22;10245;51.344;6.620;2023-04-07T13:33:25;9.90;86.50
20171;DHT22;10245;51.344;6.620;2023-04-07T13:35:48;9.90;86.60
20171;DHT22;10245;51.344;6.620;2023-04-07T13:38:12;9.90;87.50
20171;DHT22;10245;51.344;6.620;2023-04-07T13:40:35;9.90;86.70
20171;DHT22;10245;51.344;6.620;2023-04-07T13:42:58;9.90;88.20
20171;DHT22;10245;51.344;6.620;2023-04-07T13:45:22;9.80;87.10
20171;DHT22;10245;51.344;6.620;2023-04-07T13:47:47;9.90;87.80
20171;DHT22;10245;51.344;6.620;2023-04-07T13:50:10;9.90;87.10
20171;DHT22;10245;51.344;6.620;2023-04-07T13:52:33;9.90;87.70
20171;DHT22;10245;51.344;6.620;2023-04-07T13:54:57;10.00;87.70
20171;DHT22;10245;51.344;6.620;2023-04-07T13:57:21;10.10;87.30
20171;DHT22;10245;51.344;6.620;2023-04-07T13:59:44;10.00;86.70
20171;DHT22;10245;51.344;6.620;2023-04-07T14:02:08;10.00;87.10
20171;DHT22;10245;51.344;6.620;2023-04-07T14:04:33;10.00;86.80
20171;DHT22;10245;51.344;6.620;2023-04-07T14:06:57;9.90;87.20
20171;DHT22;10245;51.344;6.620;2023-04-07T14:09:20;9.50;88.20
20171;DHT22;10245;51.344;6.620;2023-04-07T14:11:44;9.50;88.60
20171;DHT22;10245;51.344;6.620;2023-04-07T14:14:07;9.50;89.00
20171;DHT22;10245;51.344;6.620;2023-04-07T14:16:31;9.50;88.90
20171;DHT22;10245;51.344;6.620;2023-04-07T14:18:54;9.40;88.20
20171;DHT22;10245;51.344;6.620;2023-04-07T14:21:19;9.50;88.30
20171;DHT22;10245;51.344;6.620;2023-04-07T14:23:42;9.60;89.00
20171;DHT22;10245;51.344;6.620;2023-04-07T14:26:09;9.50;88.40
20171;DHT22;10245;51.344;6.620;2023-04-07T14:28:33;9.60;88.50
20171;DHT22;10245;51.344;6.620;2023-04-07T14:30:56;9.70;88.90
20171;DHT22;10245;51.344;6.620;2023-04-07T14:33:20;9.70;88.50
20171;DHT22;10245;51.344;6.620;2023-04-07T14:35:43;9.70;89.30
20171;DHT22;10245;51.344;6.620;2023-04-07T14:38:08;9.60;88.80
20171;DHT22;10245;51.344;6.620;2023-04-07T14:40:32;9.70;89.00
20171;DHT22;10245;51.344;6.620;2023-04-07T14:42:55;9.70;88.70
20171;DHT22;10245;51.344;6.620;2023-04-07T14:45:22;9.80;89.10
20171;DHT22;10245;51.344;6.620;2023-04-07T14:47:46;9.70;88.60
20171;DHT22;10245;51.344;6.620;2023-04-07T14:50:10;9.80;89.70
20171;DHT22;10245;51.344;6.620;2023-04-07T14:52:33;10.00;89.70
20171;DHT22;10245;51.344;6.620;2023-04-07T14:54:58;9.90;88.70
20171;DHT22;10245;51.344;6.620;2023-04-07T14:57:22;9.80;88.20
20171;DHT22;10245;51.344;6.620;2023-04-07T14:59:46;9.90;88.00
20171;DHT22;10245;51.344;6.620;2023-04-07T15:02:09;10.00;87.80
20171;DHT22;10245;51.344;6.620;2023-04-07T15:04:33;10.10;88.30
20171;DHT22;10245;51.344;6.620;2023-04-07T15:06:56;9.80;87.80
20171;DHT22;10245;51.344;6.620;2023-04-07T15:09:20;10.00;88.80
20171;DHT22;10245;51.344;6.620;2023-04-07T15:11:45;10.00;88.40
20171;DHT22;10245;51.344;6.620;2023-04-07T15:14:08;10.00;88.40
20171;DHT22;10245;51.344;6.620;2023-04-07T15:16:31;10.00;88.20
20171;DHT22;10245;51.344;6.620;2023-04-07T15:18:55;10.00;88.00
20171;DHT22;10245;51.344;6.620;2023-04-07T15:21:18;10.00;88.90
20171;DHT22;10245;51.344;6.620;2023-04-07T15:23:42;10.10;88.30
20171;DHT22;10245;51.344;6.620;2023-04-07T15:26:06;10.00;88.60
20171;DHT22;10245;51.344;6.620;2023-04-07T15:28:31;10.00;88.80
20171;DHT22;10245;51.344;6.620;2023-04-07T15:30:55;10.00;87.80
20171;DHT22;10245;51.344;6.620;2023-04-07T15:33:19;9.90;88.20
20171;DHT22;10245;51.344;6.620;2023-04-07T15:35:42;10.10;88.70
20171;DHT22;10245;51.344;6.620;2023-04-07T15:38:06;10.10;88.70